createdAt,value
2019-02-12T00:00:56.599Z,4.34
2019-02-12T00:01:56.579Z,4.4
2019-02-12T00:02:56.572Z,4.4
2019-02-12T00:03:56.549Z,4.5
2019-02-12T00:04:56.541Z,4.51
2019-02-12T00:05:56.524Z,4.51
2019-02-12T00:06:56.509Z,4.51
2019-02-12T00:07:56.496Z,4.5
2019-02-12T00:08:56.475Z,4.51
2019-02-12T00:09:56.463Z,4.52
2019-02-12T00:10:56.450Z,4.5
2019-02-12T00:11:56.433Z,4.54
2019-02-12T00:12:56.417Z,4.66
2019-02-12T00:13:56.421Z,4.62
2019-02-12T00:14:56.406Z,4.6
2019-02-12T00:15:56.371Z,4.66
2019-02-12T00:16:56.114Z,4.66
2019-02-12T00:17:56.345Z,4.63
2019-02-12T00:18:56.328Z,4.59
2019-02-12T00:19:56.315Z,4.67
2019-02-12T00:20:56.300Z,4.66
2019-02-12T00:21:56.283Z,4.58
2019-02-12T00:22:56.273Z,4.66
2019-02-12T00:23:56.302Z,4.59
2019-02-12T00:24:56.251Z,4.69
2019-02-12T00:25:56.226Z,4.67
2019-02-12T00:26:56.214Z,4.75
2019-02-12T00:27:56.198Z,4.75
2019-02-12T00:28:56.180Z,4.72
2019-02-12T00:29:56.177Z,4.75
2019-02-12T00:30:56.150Z,4.67
2019-02-12T00:31:56.136Z,4.66
2019-02-12T00:32:56.149Z,4.72
2019-02-12T00:33:56.113Z,4.67
2019-02-12T00:34:56.096Z,4.59
2019-02-12T00:35:56.101Z,4.7
2019-02-12T00:36:56.063Z,4.63
2019-02-12T00:37:56.049Z,4.62
2019-02-12T00:38:56.036Z,4.72
2019-02-12T00:39:56.015Z,4.75
2019-02-12T00:40:56.008Z,4.65
2019-02-12T00:41:55.997Z,4.59
2019-02-12T00:42:55.979Z,4.69
2019-02-12T00:43:55.962Z,4.67
2019-02-12T00:44:55.952Z,4.65
2019-02-12T00:45:55.936Z,4.66
2019-02-12T00:46:55.919Z,4.65
2019-02-12T00:47:55.908Z,4.58
2019-02-12T00:48:55.941Z,4.58
2019-02-12T00:49:55.876Z,4.59
2019-02-12T00:50:55.866Z,4.62
2019-02-12T00:51:55.845Z,4.52
2019-02-12T00:52:55.833Z,4.47
2019-02-12T00:53:55.815Z,4.52
2019-02-12T00:54:55.587Z,4.6
2019-02-12T00:55:55.787Z,4.63
2019-02-12T00:56:55.768Z,4.59
2019-02-12T00:57:55.754Z,4.66
2019-02-12T00:58:55.743Z,4.62
2019-02-12T00:59:55.726Z,4.62
2019-02-12T01:00:55.763Z,4.75
2019-02-12T01:01:55.694Z,4.66
2019-02-12T01:02:55.682Z,4.7
2019-02-12T01:03:55.670Z,4.7
2019-02-12T01:04:55.654Z,4.66
2019-02-12T01:05:55.638Z,4.62
2019-02-12T01:06:55.621Z,4.59
2019-02-12T01:07:55.629Z,4.63
2019-02-12T01:08:55.592Z,4.73
2019-02-12T01:09:55.576Z,4.6
2019-02-12T01:10:55.562Z,4.65
2019-02-12T01:11:55.551Z,4.66
2019-02-12T01:12:55.531Z,4.63
2019-02-12T01:13:55.516Z,4.67
2019-02-12T01:14:55.503Z,4.66
2019-02-12T01:15:55.493Z,4.73
2019-02-12T01:16:55.473Z,4.69
2019-02-12T01:17:55.462Z,4.66
2019-02-12T01:18:55.445Z,4.69
2019-02-12T01:19:55.428Z,4.66
2019-02-12T01:20:55.414Z,4.55
2019-02-12T01:21:55.400Z,4.48
2019-02-12T01:22:55.385Z,4.45
2019-02-12T01:23:55.371Z,4.44
2019-02-12T01:24:55.359Z,4.33
2019-02-12T01:25:55.342Z,4.27
2019-02-12T01:26:55.325Z,4.2
2019-02-12T01:27:55.316Z,4.26
2019-02-12T01:28:55.301Z,4.18
2019-02-12T01:29:55.284Z,4.08
2019-02-12T01:30:55.272Z,4.18
2019-02-12T01:31:55.256Z,4.09
2019-02-12T01:32:55.247Z,4.16
2019-02-12T01:33:55.223Z,4.11
2019-02-12T01:34:55.215Z,4.11
2019-02-12T01:35:55.194Z,4.08
2019-02-12T01:36:55.181Z,4.09
2019-02-12T01:37:55.166Z,4
2019-02-12T01:38:55.156Z,4.16
2019-02-12T01:39:55.134Z,4.06
2019-02-12T01:40:55.128Z,4.04
2019-02-12T01:41:55.104Z,4.14
2019-02-12T01:42:55.086Z,4.18
2019-02-12T01:43:55.079Z,4.05
2019-02-12T01:44:55.067Z,4.24
2019-02-12T01:45:55.040Z,4.15
2019-02-12T01:46:55.044Z,4.26
2019-02-12T01:47:55.018Z,4.3
2019-02-12T01:48:55.011Z,4.29
2019-02-12T01:49:54.984Z,4.24
2019-02-12T01:50:55.025Z,4.32
2019-02-12T01:51:54.952Z,4.29
2019-02-12T01:52:54.937Z,4.4
2019-02-12T01:53:54.928Z,4.41
2019-02-12T01:54:54.909Z,4.42
2019-02-12T01:55:54.895Z,4.36
2019-02-12T01:56:54.877Z,4.36
2019-02-12T01:57:54.863Z,4.47
2019-02-12T01:58:54.848Z,4.48
2019-02-12T01:59:54.832Z,4.47
2019-02-12T02:00:54.817Z,4.5
2019-02-12T02:01:54.804Z,4.48
2019-02-12T02:02:54.791Z,4.54
2019-02-12T02:03:54.772Z,4.54
2019-02-12T02:04:54.759Z,4.54
2019-02-12T02:05:54.744Z,4.52
2019-02-12T02:06:54.728Z,4.54
2019-02-12T02:07:54.713Z,4.48
2019-02-12T02:08:54.702Z,4.69
2019-02-12T02:09:54.685Z,4.65
2019-02-12T02:10:54.670Z,4.58
2019-02-12T02:11:54.656Z,4.65
2019-02-12T02:12:54.653Z,4.66
2019-02-12T02:13:54.625Z,4.67
2019-02-12T02:14:54.616Z,4.62
2019-02-12T02:15:54.425Z,4.65
2019-02-12T02:16:54.586Z,4.66
2019-02-12T02:17:54.569Z,4.72
2019-02-12T02:18:54.584Z,4.75
2019-02-12T02:19:54.572Z,4.63
2019-02-12T02:20:54.524Z,4.7
2019-02-12T02:21:54.510Z,4.67
2019-02-12T02:22:54.491Z,4.75
2019-02-12T02:23:54.478Z,4.72
2019-02-12T02:24:54.489Z,4.75
2019-02-12T02:25:54.445Z,4.73
2019-02-12T02:26:54.432Z,4.67
2019-02-12T02:27:54.421Z,4.65
2019-02-12T02:28:54.163Z,4.82
2019-02-12T02:29:54.387Z,4.69
2019-02-12T02:30:54.374Z,4.69
2019-02-12T02:31:54.364Z,4.67
2019-02-12T02:32:54.349Z,4.72
2019-02-12T02:33:54.351Z,4.72
2019-02-12T02:34:54.314Z,4.63
2019-02-12T02:35:54.315Z,4.65
2019-02-12T02:36:54.294Z,4.66
2019-02-12T02:37:54.296Z,4.59
2019-02-12T02:38:54.257Z,4.65
2019-02-12T02:39:54.255Z,4.63
2019-02-12T02:40:54.227Z,4.65
2019-02-12T02:41:54.209Z,4.6
2019-02-12T02:42:54.199Z,4.62
2019-02-12T02:43:54.184Z,4.66
2019-02-12T02:44:54.182Z,4.75
2019-02-12T02:45:54.153Z,4.59
2019-02-12T02:46:54.144Z,4.62
2019-02-12T02:47:54.131Z,4.66
2019-02-12T02:48:54.112Z,4.8
2019-02-12T02:49:54.100Z,4.8
2019-02-12T02:50:54.085Z,4.67
2019-02-12T02:51:58.878Z,4.67
2019-02-12T02:52:53.816Z,4.7
2019-02-12T02:53:54.043Z,4.69
2019-02-12T02:54:54.021Z,4.66
2019-02-12T02:55:54.007Z,4.63
2019-02-12T02:56:54.032Z,4.78
2019-02-12T02:57:53.981Z,4.72
2019-02-12T02:58:53.716Z,4.7
2019-02-12T02:59:53.955Z,4.58
2019-02-12T03:00:53.698Z,4.69
2019-02-12T03:01:53.923Z,4.7
2019-02-12T03:02:53.659Z,4.65
2019-02-12T03:03:53.899Z,4.73
2019-02-12T03:04:53.872Z,4.66
2019-02-12T03:05:53.623Z,4.67
2019-02-12T03:06:53.846Z,4.67
2019-02-12T03:07:53.832Z,4.7
2019-02-12T03:08:53.823Z,4.66
2019-02-12T03:09:53.806Z,4.7
2019-02-12T03:10:54.725Z,4.59
2019-02-12T03:11:53.771Z,4.73
2019-02-12T03:12:53.760Z,4.6
2019-02-12T03:13:53.739Z,4.75
2019-02-12T03:14:53.738Z,4.66
2019-02-12T03:15:53.734Z,4.7
2019-02-12T03:16:53.701Z,4.69
2019-02-12T03:17:53.446Z,4.66
2019-02-12T03:18:53.673Z,4.67
2019-02-12T03:19:53.665Z,4.66
2019-02-12T03:20:53.638Z,4.7
2019-02-12T03:22:03.050Z,4.75
2019-02-12T03:22:53.622Z,4.67
2019-02-12T03:23:53.605Z,4.67
2019-02-12T03:24:53.582Z,4.66
2019-02-12T03:25:53.567Z,4.78
2019-02-12T03:26:53.556Z,4.78
2019-02-12T03:27:53.562Z,4.88
2019-02-12T03:28:53.525Z,4.73
2019-02-12T03:29:53.509Z,4.82
2019-02-12T03:30:53.628Z,4.82
2019-02-12T03:31:53.515Z,4.84
2019-02-12T03:32:53.498Z,4.85
2019-02-12T03:33:53.465Z,4.86
2019-02-12T03:34:53.445Z,4.86
2019-02-12T03:35:53.429Z,4.78
2019-02-12T03:36:53.406Z,4.8
2019-02-12T03:37:53.408Z,4.84
2019-02-12T03:38:53.387Z,4.8
2019-02-12T03:39:53.372Z,4.85
2019-02-12T03:40:53.369Z,4.66
2019-02-12T03:41:53.343Z,4.73
2019-02-12T03:42:53.336Z,4.8
2019-02-12T03:43:53.307Z,4.72
2019-02-12T03:44:53.288Z,4.73
2019-02-12T03:45:53.278Z,4.7
2019-02-12T03:46:53.262Z,4.67
2019-02-12T03:47:53.265Z,4.65
2019-02-12T03:48:53.231Z,4.69
2019-02-12T03:49:52.975Z,4.69
2019-02-12T03:50:53.203Z,4.77
2019-02-12T03:51:53.208Z,4.7
2019-02-12T03:52:53.180Z,4.66
2019-02-12T03:53:53.166Z,4.6
2019-02-12T03:54:53.143Z,4.5
2019-02-12T03:55:53.135Z,4.5
2019-02-12T03:56:53.116Z,4.51
2019-02-12T03:57:53.104Z,4.41
2019-02-12T03:58:53.089Z,4.27
2019-02-12T03:59:53.097Z,4.23
2019-02-12T04:00:53.057Z,4.15
2019-02-12T04:01:53.062Z,4.15
2019-02-12T04:02:53.028Z,4.11
2019-02-12T04:03:53.010Z,4.02
2019-02-12T04:04:52.996Z,3.93
2019-02-12T04:05:52.980Z,3.98
2019-02-12T04:06:52.990Z,3.84
2019-02-12T04:07:52.951Z,3.76
2019-02-12T04:08:52.939Z,3.76
2019-02-12T04:09:53.036Z,3.68
2019-02-12T04:10:52.906Z,3.68
2019-02-12T04:11:52.896Z,3.61
2019-02-12T04:12:52.883Z,3.62
2019-02-12T04:13:52.875Z,3.55
2019-02-12T04:14:52.605Z,3.6
2019-02-12T04:15:52.835Z,3.45
2019-02-12T04:16:52.870Z,3.36
2019-02-12T04:17:52.812Z,3.4
2019-02-12T04:18:52.783Z,3.45
2019-02-12T04:19:52.768Z,3.33
2019-02-12T04:20:52.764Z,3.42
2019-02-12T04:21:52.742Z,3.26
2019-02-12T04:22:52.728Z,3.28
2019-02-12T04:23:52.715Z,3.31
2019-02-12T04:24:52.703Z,3.32
2019-02-12T04:25:52.682Z,3.23
2019-02-12T04:26:52.673Z,3.23
2019-02-12T04:27:52.645Z,3.32
2019-02-12T04:28:52.629Z,3.23
2019-02-12T04:29:52.613Z,3.18
2019-02-12T04:30:52.605Z,3.08
2019-02-12T04:31:52.580Z,3.11
2019-02-12T04:32:52.567Z,3.06
2019-02-12T04:33:52.324Z,3.11
2019-02-12T04:34:52.541Z,3.13
2019-02-12T04:35:52.586Z,3.03
2019-02-12T04:36:52.515Z,3.1
2019-02-12T04:37:52.740Z,2.99
2019-02-12T04:38:52.471Z,2.95
2019-02-12T04:39:52.460Z,2.96
2019-02-12T04:40:52.439Z,2.97
2019-02-12T04:41:52.427Z,2.95
2019-02-12T04:42:52.412Z,2.99
2019-02-12T04:43:52.395Z,2.96
2019-02-12T04:44:54.255Z,2.95
2019-02-12T04:45:52.368Z,2.93
2019-02-12T04:46:52.358Z,2.96
2019-02-12T04:47:52.334Z,2.93
2019-02-12T04:48:52.320Z,2.95
2019-02-12T04:49:52.304Z,2.95
2019-02-12T04:50:52.285Z,2.93
2019-02-12T04:51:52.030Z,3
2019-02-12T04:52:52.251Z,2.96
2019-02-12T04:53:52.236Z,3.05
2019-02-12T04:54:52.227Z,2.99
2019-02-12T04:55:52.212Z,3.05
2019-02-12T04:56:52.188Z,3.05
2019-02-12T04:57:52.174Z,3.08
2019-02-12T04:58:52.178Z,3.13
2019-02-12T04:59:51.903Z,3.13
2019-02-12T05:00:52.142Z,3.06
2019-02-12T05:01:52.123Z,3.1
2019-02-12T05:02:52.092Z,3.2
2019-02-12T05:03:52.086Z,3.03
2019-02-12T05:04:52.068Z,3.15
2019-02-12T05:05:52.053Z,3.14
2019-02-12T05:06:52.041Z,3.13
2019-02-12T05:07:52.063Z,3.14
2019-02-12T05:08:51.995Z,3.14
2019-02-12T05:09:51.983Z,3.05
2019-02-12T05:10:51.999Z,3.05
2019-02-12T05:11:51.949Z,3.03
2019-02-12T05:12:51.948Z,3.13
2019-02-12T05:13:51.919Z,3.08
2019-02-12T05:14:51.901Z,3.03
2019-02-12T05:15:51.886Z,3.06
2019-02-12T05:16:51.867Z,2.92
2019-02-12T05:17:51.612Z,3.03
2019-02-12T05:18:51.848Z,2.95
2019-02-12T05:19:51.589Z,2.97
2019-02-12T05:20:51.823Z,2.96
2019-02-12T05:21:51.790Z,2.95
2019-02-12T05:22:51.791Z,3.06
2019-02-12T05:23:51.767Z,2.99
2019-02-12T05:24:51.742Z,2.95
2019-02-12T05:25:51.734Z,3.06
2019-02-12T05:26:51.724Z,3.05
2019-02-12T05:27:51.706Z,3.14
2019-02-12T05:28:51.687Z,3.03
2019-02-12T05:29:51.672Z,3.13
2019-02-12T05:30:51.693Z,3.13
2019-02-12T05:31:51.628Z,3.17
2019-02-12T05:32:51.625Z,3.1
2019-02-12T05:33:51.597Z,3.08
2019-02-12T05:34:51.909Z,3.1
2019-02-12T05:35:51.570Z,3.17
2019-02-12T05:36:51.553Z,3.14
2019-02-12T05:37:51.539Z,3.06
2019-02-12T05:38:51.527Z,3.06
2019-02-12T05:39:51.534Z,3.11
2019-02-12T05:40:51.497Z,3.05
2019-02-12T05:41:51.477Z,3.08
2019-02-12T05:42:51.465Z,3.24
2019-02-12T05:43:51.452Z,3.21
2019-02-12T05:44:51.426Z,3.26
2019-02-12T05:45:51.409Z,3.29
2019-02-12T05:46:51.168Z,3.42
2019-02-12T05:47:51.384Z,3.47
2019-02-12T05:48:51.375Z,3.51
2019-02-12T05:49:51.357Z,3.54
2019-02-12T05:50:51.326Z,3.61
2019-02-12T05:51:51.320Z,3.62
2019-02-12T05:52:58.766Z,3.68
2019-02-12T05:53:51.324Z,3.6
2019-02-12T05:54:51.297Z,3.68
2019-02-12T05:55:51.292Z,3.62
2019-02-12T05:56:51.249Z,3.65
2019-02-12T05:57:51.227Z,3.75
2019-02-12T05:58:51.203Z,3.66
2019-02-12T05:59:51.916Z,3.7
2019-02-12T06:00:51.184Z,3.68
2019-02-12T06:01:51.197Z,3.75
2019-02-12T06:02:51.149Z,3.76
2019-02-12T06:03:51.132Z,3.75
2019-02-12T06:04:51.118Z,3.88
2019-02-12T06:05:51.093Z,3.87
2019-02-12T06:06:51.077Z,3.98
2019-02-12T06:07:51.067Z,3.93
2019-02-12T06:08:51.192Z,3.96
2019-02-12T06:09:51.042Z,4.04
2019-02-12T06:10:51.019Z,4.12
2019-02-12T06:11:51.030Z,4.11
2019-02-12T06:12:51.017Z,4.14
2019-02-12T06:13:51.066Z,4.18
2019-02-12T06:14:50.961Z,4.3
2019-02-12T06:15:50.945Z,4.24
2019-02-12T06:16:50.946Z,4.33
2019-02-12T06:17:50.923Z,4.44
2019-02-12T06:18:50.894Z,4.33
2019-02-12T06:19:50.880Z,4.5
2019-02-12T06:20:50.863Z,4.51
2019-02-12T06:21:50.855Z,4.45
2019-02-12T06:22:50.838Z,4.62
2019-02-12T06:23:50.820Z,4.6
2019-02-12T06:24:50.808Z,4.62
2019-02-12T06:25:50.793Z,4.75
2019-02-12T06:26:50.776Z,4.69
2019-02-12T06:27:50.764Z,4.7
2019-02-12T06:28:50.745Z,4.66
2019-02-12T06:29:50.731Z,4.82
2019-02-12T06:30:50.711Z,4.82
2019-02-12T06:31:50.720Z,4.77
2019-02-12T06:32:50.697Z,4.78
2019-02-12T06:33:50.672Z,4.8
2019-02-12T06:34:50.658Z,4.92
2019-02-12T06:35:50.642Z,4.78
2019-02-12T06:36:50.639Z,4.89
2019-02-12T06:37:50.613Z,4.85
2019-02-12T06:38:50.595Z,4.92
2019-02-12T06:39:50.610Z,4.89
2019-02-12T06:40:50.588Z,4.94
2019-02-12T06:41:50.560Z,4.97
2019-02-12T06:42:50.538Z,4.94
2019-02-12T06:43:50.559Z,4.99
2019-02-12T06:44:50.514Z,5.02
2019-02-12T06:45:50.497Z,5.04
2019-02-12T06:46:50.491Z,5.04
2019-02-12T06:47:50.485Z,5.04
2019-02-12T06:48:50.446Z,4.96
2019-02-12T06:49:50.434Z,5.02
2019-02-12T06:50:50.425Z,4.92
2019-02-12T06:51:50.405Z,5
2019-02-12T06:52:50.391Z,4.96
2019-02-12T06:53:50.376Z,4.97
2019-02-12T06:54:50.360Z,4.97
2019-02-12T06:55:50.346Z,4.99
2019-02-12T06:56:50.341Z,5
2019-02-12T06:57:50.322Z,4.99
2019-02-12T06:58:50.305Z,4.97
2019-02-12T06:59:50.292Z,4.97
2019-02-12T07:00:50.273Z,4.92
2019-02-12T07:01:50.262Z,4.97
2019-02-12T07:02:50.242Z,4.99
2019-02-12T07:03:50.227Z,4.99
2019-02-12T07:04:50.215Z,4.97
2019-02-12T07:05:50.205Z,4.99
2019-02-12T07:06:49.946Z,4.96
2019-02-12T07:07:50.182Z,4.99
2019-02-12T07:08:50.157Z,5
2019-02-12T07:09:50.154Z,5.04
2019-02-12T07:10:50.129Z,5.07
2019-02-12T07:11:50.115Z,5.06
2019-02-12T07:12:50.114Z,5.06
2019-02-12T07:13:50.089Z,5.07
2019-02-12T07:14:50.072Z,5.06
2019-02-12T07:15:50.057Z,5.04
2019-02-12T07:16:50.056Z,5.1
2019-02-12T07:17:50.031Z,5.12
2019-02-12T07:18:50.021Z,5.12
2019-02-12T07:19:50.007Z,5.21
2019-02-12T07:20:49.987Z,5.21
2019-02-12T07:21:49.973Z,5.24
2019-02-12T07:22:49.959Z,5.27
2019-02-12T07:23:49.981Z,5.3
2019-02-12T07:24:49.932Z,5.39
2019-02-12T07:25:49.922Z,5.48
2019-02-12T07:26:49.905Z,5.43
2019-02-12T07:27:49.883Z,5.53
2019-02-12T07:28:49.872Z,5.49
2019-02-12T07:29:49.860Z,5.53
2019-02-12T07:30:49.845Z,5.58
2019-02-12T07:31:49.833Z,5.58
2019-02-12T07:32:49.824Z,5.6
2019-02-12T07:33:49.815Z,5.53
2019-02-12T07:34:49.788Z,5.57
2019-02-12T07:35:49.772Z,5.51
2019-02-12T07:36:49.767Z,5.67
2019-02-12T07:37:49.953Z,5.64
2019-02-12T07:38:49.745Z,5.64
2019-02-12T07:39:49.716Z,5.67
2019-02-12T07:40:49.706Z,5.79
2019-02-12T07:41:49.686Z,5.86
2019-02-12T07:42:49.677Z,5.85
2019-02-12T07:43:49.418Z,5.83
2019-02-12T07:44:49.645Z,5.86
2019-02-12T07:45:49.633Z,5.93
2019-02-12T07:46:49.617Z,5.97
2019-02-12T07:47:49.430Z,6
2019-02-12T07:48:50.094Z,6.04
2019-02-12T07:49:49.574Z,6
2019-02-12T07:50:49.570Z,5.99
2019-02-12T07:51:49.546Z,5.93
2019-02-12T07:52:49.536Z,6.03
2019-02-12T07:53:49.522Z,6.04
2019-02-12T07:54:49.528Z,6.12
2019-02-12T07:55:51.386Z,6.17
2019-02-12T07:56:49.482Z,6.19
2019-02-12T07:57:49.485Z,6.15
2019-02-12T07:58:49.558Z,6.25
2019-02-12T07:59:49.453Z,6.25
2019-02-12T08:00:49.744Z,6.34
2019-02-12T08:01:49.425Z,6.31
2019-02-12T08:02:49.403Z,6.3
2019-02-12T08:03:49.404Z,6.37
2019-02-12T08:04:49.421Z,6.33
2019-02-12T08:05:49.361Z,6.34
2019-02-12T08:06:49.349Z,6.49
2019-02-12T08:07:49.360Z,6.54
2019-02-12T08:08:49.338Z,6.56
2019-02-12T08:09:49.312Z,6.55
2019-02-12T08:10:49.295Z,6.52
2019-02-12T08:11:49.287Z,6.58
2019-02-12T08:12:49.297Z,6.61
2019-02-12T08:13:49.259Z,6.7
2019-02-12T08:14:49.014Z,6.71
2019-02-12T08:15:49.238Z,6.87
2019-02-12T08:16:49.224Z,6.91
2019-02-12T08:17:48.969Z,6.88
2019-02-12T08:18:49.197Z,6.87
2019-02-12T08:19:48.954Z,6.98
2019-02-12T08:20:49.171Z,7.03
2019-02-12T08:21:49.169Z,6.98
2019-02-12T08:22:49.145Z,6.98
2019-02-12T08:23:49.130Z,6.99
2019-02-12T08:24:49.149Z,6.99
2019-02-12T08:25:49.106Z,6.95
2019-02-12T08:26:49.101Z,6.98
2019-02-12T08:27:49.085Z,6.97
2019-02-12T08:28:49.069Z,6.94
2019-02-12T08:29:49.059Z,7.03
2019-02-12T08:30:49.050Z,7.05
2019-02-12T08:31:49.053Z,7.1
2019-02-12T08:32:49.020Z,7.13
2019-02-12T08:33:49.129Z,7.17
2019-02-12T08:34:49.781Z,7.34
2019-02-12T08:35:56.987Z,7.37
2019-02-12T08:36:48.976Z,7.32
2019-02-12T08:37:48.958Z,7.4
2019-02-12T08:38:48.944Z,7.39
2019-02-12T08:39:48.947Z,7.42
2019-02-12T08:40:48.952Z,7.4
2019-02-12T08:41:48.917Z,7.39
2019-02-12T08:42:48.895Z,7.42
2019-02-12T08:43:48.885Z,7.46
2019-02-12T08:44:48.877Z,7.49
2019-02-12T08:45:48.872Z,7.46
2019-02-12T08:46:48.869Z,7.48
2019-02-12T08:47:48.845Z,7.57
2019-02-12T08:48:48.855Z,7.43
2019-02-12T08:49:48.842Z,7.53
2019-02-12T08:50:48.811Z,7.49
2019-02-12T08:51:48.786Z,7.69
2019-02-12T08:52:48.789Z,7.67
2019-02-12T08:53:55.149Z,7.8
2019-02-12T08:54:48.756Z,7.86
2019-02-12T08:55:48.740Z,7.97
2019-02-12T08:56:48.729Z,8.02
2019-02-12T08:57:48.714Z,8.04
2019-02-12T08:58:48.702Z,8.07
2019-02-12T08:59:48.694Z,8.04
2019-02-12T09:00:49.944Z,7.93
2019-02-12T09:01:48.679Z,7.89
2019-02-12T09:02:48.662Z,8.01
2019-02-12T09:03:48.675Z,8
2019-02-12T09:04:48.633Z,8.16
2019-02-12T09:05:48.635Z,8.1
2019-02-12T09:06:48.635Z,8.3
2019-02-12T09:07:48.611Z,8.34
2019-02-12T09:08:48.589Z,8.33
2019-02-12T09:09:48.659Z,8.36
2019-02-12T09:10:48.573Z,8.29
2019-02-12T09:11:48.554Z,8.33
2019-02-12T09:12:48.539Z,8.25
2019-02-12T09:13:48.536Z,8.15
2019-02-12T09:14:48.525Z,8.08
2019-02-12T09:15:48.536Z,8
2019-02-12T09:16:48.503Z,8.04
2019-02-12T09:17:48.490Z,7.98
2019-02-12T09:18:48.480Z,8.1
2019-02-12T09:19:48.466Z,8.12
2019-02-12T09:20:48.234Z,8.16
2019-02-12T09:21:48.463Z,8.28
2019-02-12T09:22:48.447Z,8.28
2019-02-12T09:23:48.426Z,8.28
2019-02-12T09:24:48.417Z,8.29
2019-02-12T09:25:48.398Z,8.3
2019-02-12T09:26:48.393Z,8.33
2019-02-12T09:27:48.373Z,8.29
2019-02-12T09:28:48.364Z,8.22
2019-02-12T09:29:48.350Z,8.29
2019-02-12T09:30:48.346Z,8.4
2019-02-12T09:31:48.328Z,8.48
2019-02-12T09:32:48.320Z,8.52
2019-02-12T09:33:48.307Z,8.65
2019-02-12T09:34:48.318Z,8.7
2019-02-12T09:35:48.296Z,8.66
2019-02-12T09:36:48.277Z,8.66
2019-02-12T09:37:48.280Z,8.79
2019-02-12T09:38:48.253Z,8.92
2019-02-12T09:39:48.243Z,8.99
2019-02-12T09:40:48.235Z,9.01
2019-02-12T09:41:48.220Z,9.11
2019-02-12T09:42:48.215Z,9.23
2019-02-12T09:43:48.208Z,9.23
2019-02-12T09:44:48.189Z,9.29
2019-02-12T09:45:48.185Z,9.31
2019-02-12T09:46:48.165Z,9.33
2019-02-12T09:47:48.155Z,9.39
2019-02-12T09:48:48.158Z,9.42
2019-02-12T09:49:48.134Z,9.39
2019-02-12T09:50:48.126Z,9.35
2019-02-12T09:51:48.112Z,9.5
2019-02-12T09:52:48.101Z,9.38
2019-02-12T09:53:48.090Z,9.48
2019-02-12T09:54:48.094Z,9.46
2019-02-12T09:55:48.071Z,9.32
2019-02-12T09:56:48.067Z,9.31
2019-02-12T09:57:48.069Z,9.23
2019-02-12T09:58:48.038Z,9.13
2019-02-12T09:59:48.028Z,9.11
2019-02-12T10:00:48.027Z,9.21
2019-02-12T10:01:48.018Z,9.23
2019-02-12T10:02:48.021Z,9.13
2019-02-12T10:03:48.069Z,9.17
2019-02-12T10:04:47.975Z,8.99
2019-02-12T10:05:47.966Z,8.96
2019-02-12T10:06:47.962Z,8.95
2019-02-12T10:07:48.248Z,8.92
2019-02-12T10:08:47.945Z,8.84
2019-02-12T10:09:47.945Z,8.87
2019-02-12T10:10:48.033Z,8.96
2019-02-12T10:11:47.908Z,9.02
2019-02-12T10:12:49.660Z,9.05
2019-02-12T10:13:47.893Z,9.23
2019-02-12T10:14:47.881Z,9.35
2019-02-12T10:15:47.930Z,9.33
2019-02-12T10:16:47.853Z,9.42
2019-02-12T10:17:47.866Z,9.48
2019-02-12T10:18:47.853Z,9.48
2019-02-12T10:19:47.848Z,9.43
2019-02-12T10:20:47.809Z,9.21
2019-02-12T10:21:47.806Z,9.29
2019-02-12T10:22:47.815Z,9.32
2019-02-12T10:23:47.783Z,9.33
2019-02-12T10:24:47.766Z,9.35
2019-02-12T10:25:47.763Z,9.36
2019-02-12T10:26:47.747Z,9.38
2019-02-12T10:27:47.749Z,9.42
